Time;durP1;ratioP1;P1;durP2;ratioP2;P2;SDS_P1;SDS_P2;PMS_P1;PMS_P2;Temp;Humidity;BMP_temperature;BMP_pressure;BME280_temperature;BME280_humidity;BME280_pressure;Samples;Min_cycle;Max_cycle;Signal;HPM_P1;HPM_P2
2022/11/29 00:01:14;;;;;;;0.70;0.70;;;;;;;;;;4966814;28;20186;-76
2022/11/29 00:03:39;;;;;;;1.03;0.93;;;;;;;;;;4981355;28;20183;-75
2022/11/29 00:06:05;;;;;;;0.90;0.90;;;;;;;;;;4970086;28;20193;-75
2022/11/29 00:08:31;;;;;;;0.83;0.83;;;;;;;;;;4978166;28;20319;-76
2022/11/29 00:10:56;;;;;;;1.13;0.80;;;;;;;;;;4969981;28;20281;-76
2022/11/29 00:13:21;;;;;;;0.70;0.70;;;;;;;;;;4965893;28;20199;-76
2022/11/29 00:15:46;;;;;;;0.80;0.80;;;;;;;;;;4970981;28;20264;-76
2022/11/29 00:18:12;;;;;;;0.70;0.70;;;;;;;;;;4971882;28;20339;-75
2022/11/29 00:20:37;;;;;;;1.00;1.00;;;;;;;;;;4975135;28;20345;-76
2022/11/29 00:23:03;;;;;;;1.00;1.00;;;;;;;;;;4960077;28;20196;-76
2022/11/29 00:25:28;;;;;;;1.07;1.03;;;;;;;;;;4974374;28;20217;-76
2022/11/29 00:27:53;;;;;;;0.90;0.90;;;;;;;;;;4966365;28;20194;-75
2022/11/29 00:30:19;;;;;;;1.27;1.10;;;;;;;;;;4967453;28;20188;-75
2022/11/29 00:32:44;;;;;;;0.90;0.90;;;;;;;;;;4968457;28;20191;-76
2022/11/29 00:35:10;;;;;;;1.23;1.13;;;;;;;;;;4963920;28;20175;-76
2022/11/29 00:37:35;;;;;;;1.40;1.30;;;;;;;;;;4968194;28;20181;-76
2022/11/29 00:40:00;;;;;;;1.20;1.10;;;;;;;;;;4971222;28;20185;-76
2022/11/29 00:42:25;;;;;;;1.40;1.30;;;;;;;;;;4971760;28;20185;-76
2022/11/29 00:44:51;;;;;;;1.60;1.03;;;;;;;;;;4963370;28;20180;-76
2022/11/29 00:47:16;;;;;;;1.10;1.10;;;;;;;;;;4969256;28;20212;-76
2022/11/29 00:49:41;;;;;;;1.13;1.10;;;;;;;;;;4969789;28;20234;-76
2022/11/29 00:52:06;;;;;;;1.07;1.07;;;;;;;;;;4968973;28;20175;-76
2022/11/29 00:54:32;;;;;;;0.90;0.90;;;;;;;;;;4969722;28;20195;-75
2022/11/29 00:56:57;;;;;;;0.80;0.80;;;;;;;;;;4974583;28;20220;-75
2022/11/29 00:59:22;;;;;;;0.90;0.90;;;;;;;;;;4963257;28;20191;-75
2022/11/29 01:01:47;;;;;;;1.00;1.00;;;;;;;;;;4974905;28;20215;-76
2022/11/29 01:04:12;;;;;;;0.97;0.97;;;;;;;;;;4976390;28;20208;-76
2022/11/29 01:06:38;;;;;;;1.00;1.00;;;;;;;;;;4971472;28;20254;-75
2022/11/29 01:09:03;;;;;;;0.90;0.90;;;;;;;;;;4972390;28;20175;-75
2022/11/29 01:11:28;;;;;;;1.10;1.00;;;;;;;;;;4979507;28;20182;-76
2022/11/29 01:13:58;;;;;;;0.93;0.90;;;;;;;;;;4973751;28;20180;-75
2022/11/29 01:16:23;;;;;;;1.10;1.00;;;;;;;;;;4973375;28;20285;-76
2022/11/29 01:18:49;;;;;;;1.13;1.03;;;;;;;;;;4970990;28;20354;-76
2022/11/29 01:21:15;;;;;;;0.80;0.80;;;;;;;;;;4989383;28;20190;-76
2022/11/29 01:23:41;;;;;;;0.70;0.70;;;;;;;;;;4969908;28;20270;-75
2022/11/29 01:26:07;;;;;;;0.60;0.60;;;;;;;;;;4963101;28;20301;-76
2022/11/29 01:28:33;;;;;;;1.07;0.67;;;;;;;;;;4972531;28;20221;-76
2022/11/29 01:30:58;;;;;;;0.80;0.80;;;;;;;;;;4970246;28;20230;-76
2022/11/29 01:33:23;;;;;;;0.87;0.87;;;;;;;;;;4970916;28;20196;-76
2022/11/29 01:35:50;;;;;;;0.83;0.83;;;;;;;;;;4988208;28;20710;-76
2022/11/29 01:38:15;;;;;;;0.80;0.80;;;;;;;;;;4976312;28;20191;-75
2022/11/29 01:40:40;;;;;;;0.83;0.83;;;;;;;;;;4971904;28;20187;-75
2022/11/29 01:43:13;;;;;;;0.80;0.80;;;;;;;;;;4973655;28;20199;-76
2022/11/29 01:45:39;;;;;;;0.70;0.70;;;;;;;;;;4973229;28;20236;-76
2022/11/29 01:48:05;;;;;;;1.33;1.00;;;;;;;;;;4970191;28;20199;-77
2022/11/29 01:50:30;;;;;;;0.60;0.60;;;;;;;;;;4972894;28;20184;-76
2022/11/29 01:52:55;;;;;;;0.80;0.80;;;;;;;;;;4971366;28;20464;-75
2022/11/29 01:55:20;;;;;;;0.77;0.77;;;;;;;;;;4970347;28;20187;-76
2022/11/29 01:57:46;;;;;;;1.43;0.80;;;;;;;;;;4972458;28;20238;-76
2022/11/29 02:00:15;;;;;;;0.70;0.70;;;;;;;;;;4977294;28;20182;-77
2022/11/29 02:02:42;;;;;;;2.20;1.00;;;;;;;;;;4986413;28;20264;-76
2022/11/29 02:05:08;;;;;;;0.87;0.87;;;;;;;;;;4967833;28;20187;-76
2022/11/29 02:07:33;;;;;;;0.80;0.80;;;;;;;;;;4971119;28;20671;-76
2022/11/29 02:09:59;;;;;;;1.00;1.00;;;;;;;;;;4976770;28;20191;-76
2022/11/29 02:12:24;;;;;;;0.90;0.80;;;;;;;;;;4972402;28;20309;-75
2022/11/29 02:14:55;;;;;;;1.20;0.93;;;;;;;;;;4975887;28;20179;-76
2022/11/29 02:17:32;;;;;;;1.67;0.90;;;;;;;;;;4982022;28;20240;-76
2022/11/29 02:20:07;;;;;;;1.03;1.03;;;;;;;;;;4982887;28;20228;-75
2022/11/29 02:23:05;;;;;;;1.10;1.00;;;;;;;;;;4970302;28;20181;-76
2022/11/29 02:25:42;;;;;;;1.20;1.10;;;;;;;;;;4931303;28;20191;-75
2022/11/29 02:28:16;;;;;;;0.90;0.90;;;;;;;;;;4969650;28;20186;-75
2022/11/29 02:30:54;;;;;;;0.67;0.67;;;;;;;;;;4968528;28;20215;-76
2022/11/29 02:33:38;;;;;;;0.80;0.80;;;;;;;;;;4969401;28;20182;-76
2022/11/29 02:36:03;;;;;;;0.90;0.90;;;;;;;;;;4969415;28;20186;-76
2022/11/29 02:38:28;;;;;;;1.10;1.07;;;;;;;;;;4968142;28;20177;-76
2022/11/29 02:41:06;;;;;;;4.43;1.10;;;;;;;;;;4971333;28;20192;-76
2022/11/29 02:43:39;;;;;;;0.80;0.80;;;;;;;;;;4967745;28;20205;-75
2022/11/29 02:46:23;;;;;;;0.80;0.80;;;;;;;;;;4965832;28;20231;-76
2022/11/29 02:48:49;;;;;;;0.93;0.93;;;;;;;;;;4972009;28;20239;-76
2022/11/29 02:51:23;;;;;;;1.48;0.85;;;;;;;;;;4965833;28;20184;-75
2022/11/29 02:53:56;;;;;;;0.60;0.60;;;;;;;;;;4969967;28;20188;-76
2022/11/29 02:56:33;;;;;;;0.47;0.47;;;;;;;;;;4970253;28;20187;-75
2022/11/29 02:59:24;;;;;;;0.80;0.80;;;;;;;;;;4963599;28;20185;-76
2022/11/29 03:02:02;;;;;;;0.60;0.60;;;;;;;;;;4962722;28;20196;-75
2022/11/29 03:04:31;;;;;;;0.50;0.50;;;;;;;;;;4969630;28;20182;-75
2022/11/29 03:07:18;;;;;;;0.67;0.67;;;;;;;;;;4972594;28;20214;-76
2022/11/29 03:09:47;;;;;;;0.70;0.70;;;;;;;;;;4980527;28;20242;-76
2022/11/29 03:12:13;;;;;;;0.50;0.50;;;;;;;;;;4970377;28;20186;-76
2022/11/29 03:14:47;;;;;;;0.50;0.50;;;;;;;;;;4972583;28;20270;-76
2022/11/29 03:17:18;;;;;;;0.57;0.57;;;;;;;;;;4967406;28;20212;-76
2022/11/29 03:20:03;;;;;;;0.93;0.70;;;;;;;;;;4967759;28;20230;-76
2022/11/29 03:22:42;;;;;;;0.30;0.30;;;;;;;;;;4969812;28;20184;-75
2022/11/29 03:25:18;;;;;;;0.50;0.50;;;;;;;;;;4967503;28;20182;-76
2022/11/29 03:27:52;;;;;;;0.50;0.50;;;;;;;;;;4968253;28;20195;-76
2022/11/29 03:30:18;;;;;;;0.50;0.50;;;;;;;;;;4967699;28;20263;-76
2022/11/29 03:32:55;;;;;;;0.20;0.20;;;;;;;;;;4982370;28;20275;-75
2022/11/29 03:35:26;;;;;;;0.30;0.30;;;;;;;;;;4969709;28;20181;-76
2022/11/29 03:38:10;;;;;;;0.70;0.70;;;;;;;;;;4990233;28;20185;-76
2022/11/29 03:40:54;;;;;;;0.30;0.30;;;;;;;;;;4962248;28;20183;-76
2022/11/29 03:43:26;;;;;;;0.50;0.50;;;;;;;;;;4982576;28;20186;-76
2022/11/29 03:45:58;;;;;;;0.70;0.70;;;;;;;;;;4970174;28;20203;-76
2022/11/29 03:48:28;;;;;;;0.60;0.60;;;;;;;;;;4971576;28;20184;-76
2022/11/29 03:50:56;;;;;;;0.40;0.40;;;;;;;;;;4971533;28;20186;-75
2022/11/29 03:53:27;;;;;;;0.60;0.60;;;;;;;;;;4970372;28;20184;-76
2022/11/29 03:55:56;;;;;;;0.47;0.47;;;;;;;;;;4967748;28;20259;-75
2022/11/29 03:58:40;;;;;;;0.80;0.80;;;;;;;;;;4967450;28;20183;-76
2022/11/29 04:01:20;;;;;;;0.70;0.70;;;;;;;;;;4965885;28;20181;-76
2022/11/29 04:03:51;;;;;;;0.70;0.70;;;;;;;;;;4973392;28;20185;-76
2022/11/29 04:06:17;;;;;;;0.83;0.83;;;;;;;;;;4986423;28;20213;-76
2022/11/29 04:08:52;;;;;;;0.80;0.80;;;;;;;;;;4967717;28;20180;-76
2022/11/29 04:11:53;;;;;;;0.70;0.70;;;;;;;;;;4969594;28;20189;-76
2022/11/29 04:14:27;;;;;;;0.67;0.67;;;;;;;;;;4970695;28;20186;-77
2022/11/29 04:16:52;;;;;;;0.60;0.60;;;;;;;;;;4966507;28;20231;-76
2022/11/29 04:19:23;;;;;;;0.97;0.73;;;;;;;;;;4970881;28;20251;-76
2022/11/29 04:21:55;;;;;;;0.27;0.27;;;;;;;;;;4970709;28;20321;-76
2022/11/29 04:24:40;;;;;;;0.40;0.40;;;;;;;;;;4973469;28;20187;-76
2022/11/29 04:27:25;;;;;;;0.60;0.60;;;;;;;;;;4972188;28;20558;-75
2022/11/29 04:29:58;;;;;;;0.60;0.60;;;;;;;;;;4971844;28;20248;-75
2022/11/29 04:32:38;;;;;;;0.60;0.60;;;;;;;;;;4970912;28;20214;-76
2022/11/29 04:35:13;;;;;;;0.60;0.60;;;;;;;;;;4970864;28;20179;-75
2022/11/29 04:37:56;;;;;;;0.70;0.70;;;;;;;;;;4988756;28;20187;-75
2022/11/29 04:40:41;;;;;;;0.50;0.50;;;;;;;;;;4972711;28;20193;-76
2022/11/29 04:43:25;;;;;;;0.40;0.40;;;;;;;;;;4974137;28;20191;-75
2022/11/29 04:46:03;;;;;;;0.50;0.50;;;;;;;;;;4970318;28;20243;-76
2022/11/29 04:48:48;;;;;;;0.70;0.70;;;;;;;;;;4971344;28;20190;-76
2022/11/29 04:51:36;;;;;;;0.60;0.50;;;;;;;;;;4986802;28;20179;-76
2022/11/29 04:54:20;;;;;;;0.50;0.50;;;;;;;;;;4971721;28;20179;-76
2022/11/29 04:56:47;;;;;;;0.40;0.40;;;;;;;;;;4970906;28;20184;-75
2022/11/29 04:59:31;;;;;;;0.73;0.73;;;;;;;;;;4976010;28;20204;-76
2022/11/29 05:01:57;;;;;;;0.50;0.50;;;;;;;;;;4973448;28;20184;-75
2022/11/29 05:04:26;;;;;;;0.70;0.70;;;;;;;;;;4972512;28;20194;-76
2022/11/29 05:07:10;;;;;;;1.00;1.00;;;;;;;;;;4983504;28;20218;-76
2022/11/29 05:09:54;;;;;;;0.77;0.50;;;;;;;;;;4970053;28;20186;-75
2022/11/29 05:12:34;;;;;;;1.07;0.67;;;;;;;;;;4971500;28;20278;-75
2022/11/29 05:15:16;;;;;;;0.63;0.63;;;;;;;;;;4972973;28;20182;-76
2022/11/29 05:17:51;;;;;;;0.67;0.67;;;;;;;;;;4987051;28;20243;-75
2022/11/29 05:20:23;;;;;;;0.90;0.90;;;;;;;;;;4967675;28;20234;-76
2022/11/29 05:23:03;;;;;;;0.90;0.90;;;;;;;;;;4969940;28;20189;-75
2022/11/29 05:25:29;;;;;;;0.83;0.83;;;;;;;;;;4970105;28;20208;-76
2022/11/29 05:28:00;;;;;;;0.90;0.90;;;;;;;;;;4972448;28;20188;-75
2022/11/29 05:30:30;;;;;;;0.80;0.80;;;;;;;;;;4971376;28;21115;-75
2022/11/29 05:33:14;;;;;;;1.00;0.97;;;;;;;;;;4971341;28;20185;-76
2022/11/29 05:35:42;;;;;;;1.73;1.07;;;;;;;;;;4970678;28;20192;-76
2022/11/29 05:38:13;;;;;;;1.07;1.07;;;;;;;;;;4973534;28;20190;-76
2022/11/29 05:40:42;;;;;;;1.30;1.20;;;;;;;;;;4970545;28;20253;-76
2022/11/29 05:43:25;;;;;;;1.10;1.00;;;;;;;;;;4970978;28;20187;-75
2022/11/29 05:45:51;;;;;;;1.50;1.27;;;;;;;;;;4973102;28;20194;-76
2022/11/29 05:48:21;;;;;;;1.43;1.33;;;;;;;;;;4963932;28;20268;-76
2022/11/29 05:50:48;;;;;;;1.50;1.40;;;;;;;;;;4968019;28;20505;-76
2022/11/29 05:53:16;;;;;;;1.23;1.23;;;;;;;;;;4970255;28;20273;-75
2022/11/29 05:56:00;;;;;;;1.50;1.40;;;;;;;;;;4971398;28;20179;-76
2022/11/29 05:58:28;;;;;;;2.33;2.13;;;;;;;;;;4967417;28;21521;-76
2022/11/29 06:01:13;;;;;;;3.87;1.63;;;;;;;;;;4977545;28;20229;-75
2022/11/29 06:03:43;;;;;;;1.60;1.50;;;;;;;;;;4965663;28;20184;-75
2022/11/29 06:06:15;;;;;;;3.23;2.00;;;;;;;;;;4972561;28;20204;-75
2022/11/29 06:08:51;;;;;;;1.33;1.23;;;;;;;;;;4964854;28;20203;-75
2022/11/29 06:11:42;;;;;;;1.43;1.33;;;;;;;;;;4967855;28;20183;-75
2022/11/29 06:14:21;;;;;;;1.50;1.40;;;;;;;;;;4936455;28;21135;-76
2022/11/29 06:16:46;;;;;;;1.53;1.43;;;;;;;;;;4968419;28;20190;-75
2022/11/29 06:19:16;;;;;;;1.47;1.37;;;;;;;;;;4970176;28;20229;-76
2022/11/29 06:21:47;;;;;;;13.43;8.97;;;;;;;;;;4970856;28;20265;-75
2022/11/29 06:24:15;;;;;;;24.27;14.70;;;;;;;;;;4973754;28;20266;-75
2022/11/29 06:26:43;;;;;;;32.30;20.20;;;;;;;;;;4966022;28;20296;-76
2022/11/29 06:29:12;;;;;;;13.53;10.90;;;;;;;;;;4976833;28;20183;-76
2022/11/29 06:31:43;;;;;;;8.57;7.50;;;;;;;;;;4970248;28;20183;-75
2022/11/29 06:34:08;;;;;;;9.37;8.60;;;;;;;;;;4978502;28;20172;-76
2022/11/29 06:36:41;;;;;;;6.37;5.70;;;;;;;;;;4967707;28;20316;-76
2022/11/29 06:39:08;;;;;;;7.07;6.50;;;;;;;;;;4969620;28;20197;-75
2022/11/29 06:41:33;;;;;;;7.83;6.87;;;;;;;;;;4968227;28;20260;-76
2022/11/29 06:43:58;;;;;;;2.77;2.57;;;;;;;;;;4968214;28;20234;-75
2022/11/29 06:46:44;;;;;;;2.73;2.53;;;;;;;;;;4973937;28;20221;-76
2022/11/29 06:49:18;;;;;;;2.87;2.60;;;;;;;;;;4969094;28;20202;-76
2022/11/29 06:51:44;;;;;;;2.43;2.23;;;;;;;;;;4967225;28;20201;-76
2022/11/29 06:54:25;;;;;;;6.07;5.57;;;;;;;;;;4970055;28;20182;-76
2022/11/29 06:57:02;;;;;;;3.43;3.13;;;;;;;;;;4961652;28;20206;-76
2022/11/29 06:59:30;;;;;;;3.40;3.20;;;;;;;;;;4970388;28;20263;-76
2022/11/29 07:01:59;;;;;;;3.90;3.60;;;;;;;;;;4968409;28;20187;-75
2022/11/29 07:04:44;;;;;;;2.10;1.90;;;;;;;;;;4970771;28;20188;-76
2022/11/29 07:07:20;;;;;;;1.40;1.30;;;;;;;;;;4963431;28;20221;-75
2022/11/29 07:09:48;;;;;;;2.57;2.37;;;;;;;;;;4986082;28;20184;-76
2022/11/29 07:12:13;;;;;;;2.13;1.93;;;;;;;;;;4970656;28;20212;-76
2022/11/29 07:14:39;;;;;;;1.90;1.80;;;;;;;;;;4966154;28;20213;-75
2022/11/29 07:17:27;;;;;;;1.80;1.70;;;;;;;;;;4963445;28;20223;-75
2022/11/29 07:19:55;;;;;;;1.40;1.30;;;;;;;;;;4958930;28;20337;-76
2022/11/29 07:22:39;;;;;;;1.43;1.30;;;;;;;;;;4970513;28;20271;-75
2022/11/29 07:25:24;;;;;;;2.10;1.90;;;;;;;;;;4967211;28;20198;-75
2022/11/29 07:28:01;;;;;;;4.40;4.00;;;;;;;;;;4975424;28;20193;-76
2022/11/29 07:30:32;;;;;;;2.43;2.00;;;;;;;;;;4968397;28;20322;-76
2022/11/29 07:32:58;;;;;;;2.60;2.10;;;;;;;;;;4968104;28;20183;-75
2022/11/29 07:35:58;;;;;;;2.90;2.67;;;;;;;;;;4970353;28;20188;-76
2022/11/29 07:38:26;;;;;;;4.07;1.90;;;;;;;;;;4927715;29;20175;-76
2022/11/29 07:40:59;;;;;;;5.10;2.20;;;;;;;;;;4965226;28;20192;-75
2022/11/29 07:43:46;;;;;;;3.27;2.30;;;;;;;;;;4974693;28;20185;-76
2022/11/29 07:46:11;;;;;;;2.70;2.50;;;;;;;;;;4966261;28;20207;-76
2022/11/29 07:48:36;;;;;;;3.23;2.93;;;;;;;;;;4970849;28;20252;-76
2022/11/29 07:51:02;;;;;;;3.13;2.90;;;;;;;;;;4973603;28;20169;-75
2022/11/29 07:53:29;;;;;;;4.60;3.57;;;;;;;;;;4971441;28;20179;-76
2022/11/29 07:55:54;;;;;;;3.47;3.17;;;;;;;;;;4972773;28;20206;-76
2022/11/29 07:58:19;;;;;;;2.70;2.40;;;;;;;;;;4969991;28;20277;-76
2022/11/29 08:00:44;;;;;;;3.00;2.17;;;;;;;;;;4969953;28;20433;-76
2022/11/29 08:03:10;;;;;;;2.37;2.17;;;;;;;;;;4970452;28;20174;-76
2022/11/29 08:05:35;;;;;;;1.90;1.70;;;;;;;;;;4973981;28;20184;-75
2022/11/29 08:08:01;;;;;;;1.80;1.70;;;;;;;;;;4969999;28;20189;-75
2022/11/29 08:10:26;;;;;;;3.07;2.70;;;;;;;;;;4972289;28;20195;-75
2022/11/29 08:12:52;;;;;;;2.77;2.47;;;;;;;;;;4974434;28;20283;-76
2022/11/29 08:15:18;;;;;;;2.67;2.43;;;;;;;;;;4970992;28;20185;-89
2022/11/29 08:17:43;;;;;;;2.83;2.63;;;;;;;;;;4975600;28;20207;-82
2022/11/29 08:20:09;;;;;;;3.13;2.80;;;;;;;;;;4970101;28;20245;-82
2022/11/29 08:22:34;;;;;;;3.00;2.60;;;;;;;;;;4971093;28;20247;-82
2022/11/29 08:25:00;;;;;;;3.43;3.13;;;;;;;;;;4961384;28;20269;-82
2022/11/29 08:27:25;;;;;;;3.30;2.50;;;;;;;;;;4969529;28;20231;-82
2022/11/29 08:29:50;;;;;;;3.60;3.30;;;;;;;;;;4971799;28;20201;-82
2022/11/29 08:32:16;;;;;;;3.20;3.00;;;;;;;;;;4969385;28;20188;-82
2022/11/29 08:34:41;;;;;;;1.87;1.70;;;;;;;;;;4968554;28;20182;-82
2022/11/29 08:37:06;;;;;;;2.23;2.03;;;;;;;;;;4967118;28;20184;-82
2022/11/29 08:39:31;;;;;;;2.07;1.90;;;;;;;;;;4972335;28;20184;-82
2022/11/29 08:41:57;;;;;;;2.43;1.90;;;;;;;;;;4971024;28;20188;-82
2022/11/29 08:44:22;;;;;;;2.20;2.00;;;;;;;;;;4972899;28;20181;-82
2022/11/29 08:49:32;;;;;;;1.93;1.83;;;;;;;;;;4966478;28;20228;-82
2022/11/29 08:54:41;;;;;;;1.90;1.70;;;;;;;;;;4970699;28;20220;-82
2022/11/29 08:57:06;;;;;;;13.10;8.67;;;;;;;;;;4969561;28;20194;-82
2022/11/29 08:59:31;;;;;;;2.23;2.03;;;;;;;;;;4972802;28;20191;-82
2022/11/29 09:01:57;;;;;;;2.30;2.10;;;;;;;;;;4971881;28;20183;-82
2022/11/29 09:04:23;;;;;;;2.23;2.03;;;;;;;;;;4979596;28;20511;-82
2022/11/29 09:06:49;;;;;;;2.50;1.90;;;;;;;;;;4972992;28;20229;-82
2022/11/29 09:09:14;;;;;;;1.80;1.70;;;;;;;;;;4970772;28;20210;-82
2022/11/29 09:11:39;;;;;;;3.73;2.27;;;;;;;;;;4977766;28;20277;-81
2022/11/29 09:14:05;;;;;;;3.97;1.83;;;;;;;;;;4978315;28;20231;-82
2022/11/29 09:16:32;;;;;;;7.90;2.03;;;;;;;;;;4968403;28;20184;-82
2022/11/29 09:18:57;;;;;;;6.27;3.03;;;;;;;;;;4937275;28;1231043;-82
2022/11/29 09:21:24;;;;;;;17.97;3.30;;;;;;;;;;4976405;28;20294;-82
2022/11/29 09:23:56;;;;;;;3.10;2.40;;;;;;;;;;4971916;28;20196;-82
2022/11/29 09:26:21;;;;;;;5.40;2.80;;;;;;;;;;4977428;28;20210;-82
2022/11/29 09:28:46;;;;;;;12.20;2.50;;;;;;;;;;4974434;28;20184;-82
2022/11/29 09:31:13;;;;;;;4.37;2.73;;;;;;;;;;4973243;28;20186;-81
2022/11/29 09:33:41;;;;;;;12.10;3.50;;;;;;;;;;4975165;28;20184;-82
2022/11/29 09:36:08;;;;;;;17.80;2.93;;;;;;;;;;4976683;28;20185;-82
2022/11/29 09:38:33;;;;;;;30.43;3.80;;;;;;;;;;4970672;28;20232;-82
2022/11/29 09:41:18;;;;;;;51.00;4.23;;;;;;;;;;4973954;28;20191;-82
2022/11/29 09:44:12;;;;;;;78.37;6.63;;;;;;;;;;4969915;28;20272;-82
2022/11/29 09:46:43;;;;;;;54.93;6.50;;;;;;;;;;4943807;28;20308;-81
2022/11/29 09:49:35;;;;;;;56.30;5.60;;;;;;;;;;4971550;28;20207;-82
2022/11/29 09:52:03;;;;;;;49.43;4.83;;;;;;;;;;4969950;28;20200;-82
2022/11/29 09:54:36;;;;;;;35.53;2.63;;;;;;;;;;4974888;28;20191;-82
2022/11/29 09:57:03;;;;;;;113.30;10.13;;;;;;;;;;4972618;28;20286;-82
2022/11/29 09:59:35;;;;;;;57.93;6.43;;;;;;;;;;4988279;28;20210;-82
2022/11/29 10:02:19;;;;;;;42.10;4.40;;;;;;;;;;4969289;28;20197;-82
2022/11/29 10:05:12;;;;;;;27.97;3.57;;;;;;;;;;4968620;28;20285;-82
2022/11/29 10:07:43;;;;;;;41.60;3.90;;;;;;;;;;4957343;28;20232;-82
2022/11/29 10:10:18;;;;;;;20.80;2.73;;;;;;;;;;4984918;28;20192;-82
2022/11/29 10:12:47;;;;;;;45.10;3.83;;;;;;;;;;4974204;28;20337;-82
2022/11/29 10:15:15;;;;;;;20.93;2.40;;;;;;;;;;4969810;28;20189;-82
2022/11/29 10:18:01;;;;;;;19.73;2.73;;;;;;;;;;4971315;28;20200;-82
2022/11/29 10:20:29;;;;;;;18.20;3.47;;;;;;;;;;4971068;28;20228;-82
2022/11/29 10:22:58;;;;;;;12.80;2.30;;;;;;;;;;4968184;28;20190;-82
2022/11/29 10:25:29;;;;;;;10.30;2.40;;;;;;;;;;4964340;28;20176;-82
2022/11/29 10:27:54;;;;;;;3.27;1.97;;;;;;;;;;4971878;28;20212;-82
2022/11/29 10:30:20;;;;;;;1.87;1.77;;;;;;;;;;4975748;28;20190;-81
2022/11/29 10:32:46;;;;;;;4.30;2.60;;;;;;;;;;4979149;28;20194;-81
2022/11/29 10:35:14;;;;;;;3.70;3.40;;;;;;;;;;4974552;28;20205;-81
2022/11/29 10:37:39;;;;;;;3.43;2.67;;;;;;;;;;4969753;28;20194;-81
2022/11/29 10:40:08;;;;;;;3.00;2.37;;;;;;;;;;4973055;28;20171;-81
2022/11/29 10:42:48;;;;;;;2.40;1.77;;;;;;;;;;4965982;28;20259;-81
2022/11/29 10:45:17;;;;;;;2.00;1.80;;;;;;;;;;4986899;28;20240;-81
2022/11/29 10:47:44;;;;;;;1.37;1.27;;;;;;;;;;4979611;28;20217;-82
2022/11/29 10:50:24;;;;;;;1.83;1.73;;;;;;;;;;4969948;28;20274;-82
2022/11/29 10:52:50;;;;;;;1.87;1.67;;;;;;;;;;4968493;28;20186;-82
2022/11/29 10:55:16;;;;;;;2.47;1.97;;;;;;;;;;4969374;28;20194;-82
2022/11/29 10:58:06;;;;;;;2.30;2.10;;;;;;;;;;4973422;28;20195;-81
2022/11/29 11:00:41;;;;;;;1.70;1.60;;;;;;;;;;4969688;28;20180;-82
2022/11/29 11:03:24;;;;;;;1.57;1.40;;;;;;;;;;4971444;28;20301;-82
2022/11/29 11:05:57;;;;;;;0.90;0.90;;;;;;;;;;4971534;28;20187;-81
2022/11/29 11:08:23;;;;;;;1.30;1.20;;;;;;;;;;4985247;28;20181;-82
2022/11/29 11:10:54;;;;;;;4.37;2.67;;;;;;;;;;4974244;28;20183;-82
2022/11/29 11:13:23;;;;;;;1.63;1.30;;;;;;;;;;4978185;28;20226;-82
2022/11/29 11:15:54;;;;;;;1.03;1.00;;;;;;;;;;4973082;28;20172;-82
2022/11/29 11:18:20;;;;;;;1.07;1.00;;;;;;;;;;4969997;28;20203;-82
2022/11/29 11:20:51;;;;;;;1.40;1.30;;;;;;;;;;4969584;28;20402;-82
2022/11/29 11:23:23;;;;;;;1.40;1.30;;;;;;;;;;4966800;28;20251;-82
2022/11/29 11:25:54;;;;;;;1.60;1.27;;;;;;;;;;4988619;28;20271;-82
2022/11/29 11:28:20;;;;;;;1.40;1.30;;;;;;;;;;4968400;28;20191;-82
2022/11/29 11:31:06;;;;;;;4.43;2.03;;;;;;;;;;4970826;28;20270;-81
2022/11/29 11:33:34;;;;;;;19.87;2.67;;;;;;;;;;4969077;28;20395;-81
2022/11/29 11:36:05;;;;;;;7.60;2.50;;;;;;;;;;4982474;28;20182;-82
2022/11/29 11:38:31;;;;;;;10.17;2.80;;;;;;;;;;4971291;28;20378;-81
2022/11/29 11:41:14;;;;;;;24.20;3.20;;;;;;;;;;4969393;28;20207;-81
2022/11/29 11:43:39;;;;;;;16.80;2.93;;;;;;;;;;4966873;28;20255;-81
2022/11/29 11:46:05;;;;;;;18.07;3.07;;;;;;;;;;4973216;28;20323;-82
2022/11/29 11:48:31;;;;;;;11.70;3.23;;;;;;;;;;4970406;28;20219;-81
2022/11/29 11:50:58;;;;;;;5.97;3.03;;;;;;;;;;4978677;28;20267;-81
2022/11/29 11:53:23;;;;;;;3.73;3.17;;;;;;;;;;4977491;28;20187;-82
2022/11/29 11:55:54;;;;;;;23.90;5.10;;;;;;;;;;4970366;28;20186;-81
2022/11/29 11:58:24;;;;;;;5.20;3.87;;;;;;;;;;4970029;28;20187;-81
2022/11/29 12:00:53;;;;;;;4.13;3.40;;;;;;;;;;4968559;28;20188;-81
2022/11/29 12:03:23;;;;;;;4.40;4.00;;;;;;;;;;4974103;28;20184;-81
2022/11/29 12:05:50;;;;;;;5.83;3.70;;;;;;;;;;4967935;28;20180;-81
2022/11/29 12:08:16;;;;;;;6.47;4.40;;;;;;;;;;4973035;28;20194;-81
2022/11/29 12:10:41;;;;;;;4.57;3.70;;;;;;;;;;4987664;28;20270;-81
2022/11/29 12:13:15;;;;;;;6.10;5.50;;;;;;;;;;4969909;28;20192;-82
2022/11/29 12:15:42;;;;;;;4.43;4.00;;;;;;;;;;4974746;28;20262;-82
2022/11/29 12:18:17;;;;;;;4.80;3.77;;;;;;;;;;4977815;28;20210;-82
2022/11/29 12:20:50;;;;;;;5.80;4.43;;;;;;;;;;4984210;28;20231;-82
2022/11/29 12:23:34;;;;;;;7.50;4.47;;;;;;;;;;4984910;28;20184;-82
2022/11/29 12:26:18;;;;;;;16.87;3.97;;;;;;;;;;4969132;28;20203;-82
2022/11/29 12:28:43;;;;;;;12.73;4.37;;;;;;;;;;4964532;28;20176;-82
2022/11/29 12:31:18;;;;;;;6.93;3.53;;;;;;;;;;4972719;28;20199;-82
2022/11/29 12:33:51;;;;;;;27.70;4.37;;;;;;;;;;4968765;28;20187;-82
2022/11/29 12:36:26;;;;;;;22.73;4.47;;;;;;;;;;4971443;28;20188;-82
2022/11/29 12:38:51;;;;;;;14.97;4.40;;;;;;;;;;4963964;28;20227;-82
2022/11/29 12:41:16;;;;;;;31.87;4.73;;;;;;;;;;4963419;28;20183;-82
2022/11/29 12:43:52;;;;;;;12.70;4.10;;;;;;;;;;4968949;28;20245;-82
2022/11/29 12:46:25;;;;;;;7.33;4.20;;;;;;;;;;4967527;28;20209;-82
2022/11/29 12:49:06;;;;;;;17.33;5.70;;;;;;;;;;4969857;28;20198;-82
2022/11/29 12:51:46;;;;;;;17.27;5.03;;;;;;;;;;4986058;28;20187;-81
2022/11/29 12:54:50;;;;;;;10.37;3.17;;;;;;;;;;4972267;28;20268;-81
2022/11/29 12:57:20;;;;;;;26.03;4.67;;;;;;;;;;4931036;29;20188;-82
2022/11/29 12:59:48;;;;;;;31.00;5.53;;;;;;;;;;4918650;29;20190;-82
2022/11/29 13:02:16;;;;;;;24.57;5.10;;;;;;;;;;4953235;28;20191;-82
2022/11/29 13:04:51;;;;;;;29.20;5.27;;;;;;;;;;4973892;28;20238;-82
2022/11/29 13:07:25;;;;;;;12.20;4.53;;;;;;;;;;4974161;28;20233;-82
2022/11/29 13:09:57;;;;;;;6.07;4.07;;;;;;;;;;4968545;28;20175;-81
2022/11/29 13:12:39;;;;;;;5.03;3.77;;;;;;;;;;4971087;28;20187;-82
2022/11/29 13:15:05;;;;;;;7.37;4.30;;;;;;;;;;4968959;28;20195;-81
2022/11/29 13:17:40;;;;;;;5.97;3.83;;;;;;;;;;4971581;28;20207;-82
2022/11/29 13:20:12;;;;;;;8.40;4.20;;;;;;;;;;4972788;28;20268;-81
2022/11/29 13:22:37;;;;;;;9.23;3.77;;;;;;;;;;4974076;28;20188;-81
2022/11/29 13:25:22;;;;;;;12.23;4.97;;;;;;;;;;4974407;28;20190;-81
2022/11/29 13:27:57;;;;;;;5.37;4.60;;;;;;;;;;4983642;28;20200;-81
2022/11/29 13:30:22;;;;;;;18.60;4.87;;;;;;;;;;4973034;28;20195;-81
2022/11/29 13:32:54;;;;;;;52.73;6.77;;;;;;;;;;4972875;28;20222;-82
2022/11/29 13:35:23;;;;;;;34.57;5.63;;;;;;;;;;4973212;28;20178;-82
2022/11/29 13:37:54;;;;;;;36.47;5.90;;;;;;;;;;4974202;28;20187;-81
2022/11/29 13:40:29;;;;;;;45.77;6.60;;;;;;;;;;4972011;28;20222;-82
2022/11/29 13:42:58;;;;;;;37.13;5.90;;;;;;;;;;4975762;28;20199;-81
2022/11/29 13:45:40;;;;;;;45.23;6.37;;;;;;;;;;4976248;28;20178;-82
2022/11/29 13:48:26;;;;;;;19.07;5.87;;;;;;;;;;4973251;28;20188;-82
2022/11/29 13:50:51;;;;;;;33.23;6.10;;;;;;;;;;4959773;28;20202;-82
2022/11/29 13:53:17;;;;;;;13.20;7.70;;;;;;;;;;4982103;28;20173;-82
2022/11/29 13:55:48;;;;;;;6.77;4.70;;;;;;;;;;4974398;28;20180;-82
2022/11/29 13:58:13;;;;;;;6.87;5.27;;;;;;;;;;4976899;28;20188;-81
2022/11/29 14:00:42;;;;;;;7.20;6.03;;;;;;;;;;4975646;28;20288;-82
2022/11/29 14:03:23;;;;;;;7.63;5.60;;;;;;;;;;4971739;28;20189;-82
2022/11/29 14:05:49;;;;;;;9.73;5.93;;;;;;;;;;4974301;28;20280;-82
2022/11/29 14:08:17;;;;;;;9.13;6.10;;;;;;;;;;4974895;28;20472;-82
2022/11/29 14:10:46;;;;;;;11.87;5.97;;;;;;;;;;4972730;28;20241;-82
2022/11/29 14:13:13;;;;;;;20.13;7.30;;;;;;;;;;4973759;28;20270;-82
2022/11/29 14:15:39;;;;;;;14.80;6.80;;;;;;;;;;4977221;28;20189;-81
2022/11/29 14:18:07;;;;;;;12.90;5.87;;;;;;;;;;4979426;28;20294;-82
2022/11/29 14:20:39;;;;;;;13.37;8.30;;;;;;;;;;4972313;28;20231;-82
2022/11/29 14:23:06;;;;;;;54.83;7.23;;;;;;;;;;4972837;28;20187;-82
2022/11/29 14:25:31;;;;;;;58.47;10.87;;;;;;;;;;4968001;28;20186;-82
2022/11/29 14:28:20;;;;;;;42.23;8.90;;;;;;;;;;4977801;28;20298;-81
2022/11/29 14:30:46;;;;;;;36.97;8.27;;;;;;;;;;4965082;28;20191;-82
2022/11/29 14:33:12;;;;;;;78.57;10.53;;;;;;;;;;4970445;28;20182;-82
2022/11/29 14:35:46;;;;;;;67.63;9.63;;;;;;;;;;4971669;28;20195;-82
2022/11/29 14:38:14;;;;;;;15.70;6.97;;;;;;;;;;4975343;28;20183;-82
2022/11/29 14:40:39;;;;;;;14.87;5.27;;;;;;;;;;4969539;28;20188;-82
2022/11/29 14:43:14;;;;;;;19.87;6.80;;;;;;;;;;4966947;28;20334;-82
2022/11/29 14:45:40;;;;;;;11.37;6.63;;;;;;;;;;4974097;28;20263;-82
2022/11/29 14:48:20;;;;;;;19.53;7.43;;;;;;;;;;4972845;28;20324;-82
2022/11/29 14:50:45;;;;;;;17.03;6.83;;;;;;;;;;4969183;28;20187;-82
2022/11/29 14:53:32;;;;;;;9.77;6.27;;;;;;;;;;4972024;28;20183;-82
2022/11/29 14:56:16;;;;;;;50.10;9.70;;;;;;;;;;4981396;28;20274;-82
2022/11/29 14:58:41;;;;;;;87.13;11.63;;;;;;;;;;4967049;28;20182;-82
2022/11/29 15:01:07;;;;;;;58.43;11.53;;;;;;;;;;4974589;28;20219;-82
2022/11/29 15:03:37;;;;;;;22.83;8.40;;;;;;;;;;4975780;28;20183;-82
2022/11/29 15:06:14;;;;;;;25.60;8.27;;;;;;;;;;4969738;28;20187;-82
2022/11/29 15:08:50;;;;;;;147.00;14.13;;;;;;;;;;4990046;28;20182;-82